sensor_id;sensor_type;location;lat;lon;timestamp;P1;durP1;ratioP1;P2;durP2;ratioP2
37085;SDS011;23001;45.952;12.676;2024-02-04T00:02:15;70.60;;;53.55;;
37085;SDS011;23001;45.952;12.676;2024-02-04T00:04:56;78.05;;;54.13;;
37085;SDS011;23001;45.952;12.676;2024-02-04T00:56:01;83.60;;;59.10;;
37085;SDS011;23001;45.952;12.676;2024-02-04T02:14:47;73.28;;;51.05;;
37085;SDS011;23001;45.952;12.676;2024-02-04T02:48:40;55.30;;;44.00;;
37085;SDS011;23001;45.952;12.676;2024-02-04T03:11:13;56.63;;;43.05;;
37085;SDS011;23001;45.952;12.676;2024-02-04T03:27:47;51.80;;;40.08;;
37085;SDS011;23001;45.952;12.676;2024-02-04T03:30:24;53.63;;;39.92;;
37085;SDS011;23001;45.952;12.676;2024-02-04T03:57:35;46.72;;;36.67;;
37085;SDS011;23001;45.952;12.676;2024-02-04T04:31:32;43.83;;;32.50;;
37085;SDS011;23001;45.952;12.676;2024-02-04T05:20:58;58.75;;;40.30;;
37085;SDS011;23001;45.952;12.676;2024-02-04T05:44:12;36.10;;;27.00;;
37085;SDS011;23001;45.952;12.676;2024-02-04T05:46:44;33.10;;;25.65;;
37085;SDS011;23001;45.952;12.676;2024-02-04T05:49:11;33.08;;;25.00;;
37085;SDS011;23001;45.952;12.676;2024-02-04T05:51:40;34.53;;;25.90;;
37085;SDS011;23001;45.952;12.676;2024-02-04T05:54:09;31.10;;;23.80;;
37085;SDS011;23001;45.952;12.676;2024-02-04T05:56:40;34.53;;;25.55;;
37085;SDS011;23001;45.952;12.676;2024-02-04T05:59:59;32.65;;;24.58;;
37085;SDS011;23001;45.952;12.676;2024-02-04T06:02:54;31.80;;;24.60;;
37085;SDS011;23001;45.952;12.676;2024-02-04T06:05:40;34.40;;;25.08;;
37085;SDS011;23001;45.952;12.676;2024-02-04T06:29:17;38.38;;;29.75;;
37085;SDS011;23001;45.952;12.676;2024-02-04T06:35:22;42.10;;;31.20;;
37085;SDS011;23001;45.952;12.676;2024-02-04T07:11:58;36.85;;;29.55;;
37085;SDS011;23001;45.952;12.676;2024-02-04T07:21:44;33.75;;;27.60;;
37085;SDS011;23001;45.952;12.676;2024-02-04T07:24:36;36.30;;;26.77;;
37085;SDS011;23001;45.952;12.676;2024-02-04T07:27:47;36.72;;;29.25;;
37085;SDS011;23001;45.952;12.676;2024-02-04T07:30:32;33.67;;;26.75;;
37085;SDS011;23001;45.952;12.676;2024-02-04T08:02:30;33.90;;;25.42;;
37085;SDS011;23001;45.952;12.676;2024-02-04T08:08:30;33.45;;;26.52;;
37085;SDS011;23001;45.952;12.676;2024-02-04T08:12:03;30.15;;;22.98;;
37085;SDS011;23001;45.952;12.676;2024-02-04T08:15:23;28.65;;;22.45;;
37085;SDS011;23001;45.952;12.676;2024-02-04T08:21:53;28.35;;;21.10;;
37085;SDS011;23001;45.952;12.676;2024-02-04T08:24:27;28.05;;;21.92;;
37085;SDS011;23001;45.952;12.676;2024-02-04T08:37:37;35.72;;;24.35;;
37085;SDS011;23001;45.952;12.676;2024-02-04T08:54:58;34.90;;;25.75;;
37085;SDS011;23001;45.952;12.676;2024-02-04T09:01:59;32.15;;;26.05;;
37085;SDS011;23001;45.952;12.676;2024-02-04T09:11:34;31.67;;;24.48;;
37085;SDS011;23001;45.952;12.676;2024-02-04T09:15:15;36.78;;;24.83;;
37085;SDS011;23001;45.952;12.676;2024-02-04T09:21:06;36.28;;;27.35;;
37085;SDS011;23001;45.952;12.676;2024-02-04T09:55:20;30.15;;;22.52;;
37085;SDS011;23001;45.952;12.676;2024-02-04T10:09:19;27.02;;;19.75;;
37085;SDS011;23001;45.952;12.676;2024-02-04T10:22:37;22.58;;;17.02;;
37085;SDS011;23001;45.952;12.676;2024-02-04T10:32:37;22.67;;;15.65;;
37085;SDS011;23001;45.952;12.676;2024-02-04T10:39:19;21.15;;;16.52;;
37085;SDS011;23001;45.952;12.676;2024-02-04T10:50:18;19.92;;;15.90;;
37085;SDS011;23001;45.952;12.676;2024-02-04T11:00:20;24.95;;;17.45;;
37085;SDS011;23001;45.952;12.676;2024-02-04T11:03:07;21.02;;;16.80;;
37085;SDS011;23001;45.952;12.676;2024-02-04T11:06:20;22.08;;;17.20;;
37085;SDS011;23001;45.952;12.676;2024-02-04T11:09:18;24.65;;;17.05;;
37085;SDS011;23001;45.952;12.676;2024-02-04T11:46:35;27.40;;;21.40;;
37085;SDS011;23001;45.952;12.676;2024-02-04T12:00:51;29.75;;;23.80;;
37085;SDS011;23001;45.952;12.676;2024-02-04T12:20:31;36.83;;;29.90;;
37085;SDS011;23001;45.952;12.676;2024-02-04T12:23:57;40.90;;;31.65;;
37085;SDS011;23001;45.952;12.676;2024-02-04T13:15:37;51.85;;;33.22;;
37085;SDS011;23001;45.952;12.676;2024-02-04T13:29:21;62.72;;;38.83;;
37085;SDS011;23001;45.952;12.676;2024-02-04T14:25:34;63.72;;;44.00;;
37085;SDS011;23001;45.952;12.676;2024-02-04T14:28:35;62.13;;;44.80;;
37085;SDS011;23001;45.952;12.676;2024-02-04T14:31:41;61.80;;;46.10;;
37085;SDS011;23001;45.952;12.676;2024-02-04T14:34:18;64.25;;;45.95;;
37085;SDS011;23001;45.952;12.676;2024-02-04T14:54:14;64.47;;;43.05;;
37085;SDS011;23001;45.952;12.676;2024-02-04T14:57:04;60.13;;;44.40;;
37085;SDS011;23001;45.952;12.676;2024-02-04T14:59:39;58.42;;;43.33;;
37085;SDS011;23001;45.952;12.676;2024-02-04T15:06:04;56.90;;;41.65;;
37085;SDS011;23001;45.952;12.676;2024-02-04T15:08:35;60.10;;;42.92;;
37085;SDS011;23001;45.952;12.676;2024-02-04T15:15:21;60.83;;;43.88;;
37085;SDS011;23001;45.952;12.676;2024-02-04T16:03:21;64.40;;;47.72;;
37085;SDS011;23001;45.952;12.676;2024-02-04T16:13:56;64.00;;;46.35;;
37085;SDS011;23001;45.952;12.676;2024-02-04T16:30:50;66.68;;;47.95;;
37085;SDS011;23001;45.952;12.676;2024-02-04T16:33:46;68.28;;;50.25;;
37085;SDS011;23001;45.952;12.676;2024-02-04T16:47:05;70.18;;;50.50;;
37085;SDS011;23001;45.952;12.676;2024-02-04T16:49:52;76.40;;;51.85;;
37085;SDS011;23001;45.952;12.676;2024-02-04T16:55:53;78.05;;;54.25;;
37085;SDS011;23001;45.952;12.676;2024-02-04T17:20:19;76.03;;;54.13;;
37085;SDS011;23001;45.952;12.676;2024-02-04T17:23:07;76.10;;;56.40;;
37085;SDS011;23001;45.952;12.676;2024-02-04T17:26:16;78.78;;;56.63;;
37085;SDS011;23001;45.952;12.676;2024-02-04T18:04:26;76.78;;;52.40;;
37085;SDS011;23001;45.952;12.676;2024-02-04T18:07:39;76.75;;;53.67;;
37085;SDS011;23001;45.952;12.676;2024-02-04T18:20:46;77.82;;;52.88;;
37085;SDS011;23001;45.952;12.676;2024-02-04T18:23:45;70.00;;;52.35;;
37085;SDS011;23001;45.952;12.676;2024-02-04T18:26:36;76.45;;;53.50;;
37085;SDS011;23001;45.952;12.676;2024-02-04T18:29:05;73.75;;;53.78;;
37085;SDS011;23001;45.952;12.676;2024-02-04T18:32:14;79.93;;;56.25;;
37085;SDS011;23001;45.952;12.676;2024-02-04T18:34:50;78.88;;;54.72;;
37085;SDS011;23001;45.952;12.676;2024-02-04T18:38:15;80.30;;;55.60;;
37085;SDS011;23001;45.952;12.676;2024-02-04T18:44:04;77.15;;;55.78;;
37085;SDS011;23001;45.952;12.676;2024-02-04T18:46:37;92.95;;;65.88;;
37085;SDS011;23001;45.952;12.676;2024-02-04T19:20:22;108.20;;;76.60;;
37085;SDS011;23001;45.952;12.676;2024-02-04T19:22:48;111.82;;;79.40;;
37085;SDS011;23001;45.952;12.676;2024-02-04T19:43:19;125.10;;;88.72;;
37085;SDS011;23001;45.952;12.676;2024-02-04T19:45:54;122.13;;;88.03;;
37085;SDS011;23001;45.952;12.676;2024-02-04T19:48:21;128.52;;;90.50;;
37085;SDS011;23001;45.952;12.676;2024-02-04T19:50:47;128.52;;;91.95;;
37085;SDS011;23001;45.952;12.676;2024-02-04T19:53:12;133.40;;;93.35;;
37085;SDS011;23001;45.952;12.676;2024-02-04T19:55:38;132.18;;;93.60;;
37085;SDS011;23001;45.952;12.676;2024-02-04T19:58:05;124.45;;;89.35;;
37085;SDS011;23001;45.952;12.676;2024-02-04T20:00:31;131.02;;;92.43;;
37085;SDS011;23001;45.952;12.676;2024-02-04T20:02:56;130.00;;;92.80;;
37085;SDS011;23001;45.952;12.676;2024-02-04T20:05:23;131.40;;;93.57;;
37085;SDS011;23001;45.952;12.676;2024-02-04T20:07:49;126.68;;;92.05;;
37085;SDS011;23001;45.952;12.676;2024-02-04T20:10:15;131.55;;;92.07;;
37085;SDS011;23001;45.952;12.676;2024-02-04T20:12:40;131.35;;;90.55;;
37085;SDS011;23001;45.952;12.676;2024-02-04T20:15:07;123.75;;;88.75;;
37085;SDS011;23001;45.952;12.676;2024-02-04T20:17:33;127.75;;;90.68;;
37085;SDS011;23001;45.952;12.676;2024-02-04T20:20:09;126.63;;;88.22;;
37085;SDS011;23001;45.952;12.676;2024-02-04T20:22:42;123.05;;;87.65;;
37085;SDS011;23001;45.952;12.676;2024-02-04T20:25:08;125.80;;;88.10;;
37085;SDS011;23001;45.952;12.676;2024-02-04T20:27:36;131.40;;;89.65;;
37085;SDS011;23001;45.952;12.676;2024-02-04T20:30:14;122.03;;;85.20;;
37085;SDS011;23001;45.952;12.676;2024-02-04T20:35:06;110.18;;;77.55;;
37085;SDS011;23001;45.952;12.676;2024-02-04T20:37:34;111.63;;;77.20;;
37085;SDS011;23001;45.952;12.676;2024-02-04T20:40:03;105.80;;;73.18;;
37085;SDS011;23001;45.952;12.676;2024-02-04T20:42:29;102.15;;;73.90;;
37085;SDS011;23001;45.952;12.676;2024-02-04T20:44:55;108.70;;;76.22;;
37085;SDS011;23001;45.952;12.676;2024-02-04T20:47:21;101.82;;;70.80;;
37085;SDS011;23001;45.952;12.676;2024-02-04T20:49:46;102.18;;;71.57;;
37085;SDS011;23001;45.952;12.676;2024-02-04T20:52:12;108.38;;;70.60;;
37085;SDS011;23001;45.952;12.676;2024-02-04T20:54:39;108.80;;;73.47;;
37085;SDS011;23001;45.952;12.676;2024-02-04T20:57:08;102.82;;;69.15;;
37085;SDS011;23001;45.952;12.676;2024-02-04T20:59:34;105.30;;;69.13;;
37085;SDS011;23001;45.952;12.676;2024-02-04T21:02:00;101.68;;;69.43;;
37085;SDS011;23001;45.952;12.676;2024-02-04T21:04:26;101.95;;;69.97;;
37085;SDS011;23001;45.952;12.676;2024-02-04T21:06:59;100.32;;;69.20;;
37085;SDS011;23001;45.952;12.676;2024-02-04T21:09:25;101.78;;;66.78;;
37085;SDS011;23001;45.952;12.676;2024-02-04T21:11:51;104.60;;;70.00;;
37085;SDS011;23001;45.952;12.676;2024-02-04T21:14:20;96.15;;;68.22;;
37085;SDS011;23001;45.952;12.676;2024-02-04T21:16:45;96.03;;;65.80;;
37085;SDS011;23001;45.952;12.676;2024-02-04T21:19:11;103.28;;;68.63;;
37085;SDS011;23001;45.952;12.676;2024-02-04T21:21:37;100.25;;;68.68;;
37085;SDS011;23001;45.952;12.676;2024-02-04T21:24:05;96.95;;;68.57;;
37085;SDS011;23001;45.952;12.676;2024-02-04T21:26:31;100.25;;;68.80;;
37085;SDS011;23001;45.952;12.676;2024-02-04T21:28:57;99.45;;;70.95;;
37085;SDS011;23001;45.952;12.676;2024-02-04T21:31:26;107.65;;;74.00;;
37085;SDS011;23001;45.952;12.676;2024-02-04T21:33:51;100.95;;;69.80;;
37085;SDS011;23001;45.952;12.676;2024-02-04T21:36:20;106.80;;;70.55;;
37085;SDS011;23001;45.952;12.676;2024-02-04T21:38:46;103.07;;;71.88;;
37085;SDS011;23001;45.952;12.676;2024-02-04T21:41:18;106.63;;;73.80;;
37085;SDS011;23001;45.952;12.676;2024-02-04T21:43:44;114.50;;;78.88;;
37085;SDS011;23001;45.952;12.676;2024-02-04T21:46:10;109.55;;;79.47;;
37085;SDS011;23001;45.952;12.676;2024-02-04T21:48:37;108.63;;;76.25;;
37085;SDS011;23001;45.952;12.676;2024-02-04T21:51:03;112.07;;;75.55;;
37085;SDS011;23001;45.952;12.676;2024-02-04T21:53:29;108.80;;;77.30;;
37085;SDS011;23001;45.952;12.676;2024-02-04T21:55:55;107.97;;;74.35;;
37085;SDS011;23001;45.952;12.676;2024-02-04T21:58:21;113.25;;;76.70;;
37085;SDS011;23001;45.952;12.676;2024-02-04T22:00:46;111.07;;;75.22;;
37085;SDS011;23001;45.952;12.676;2024-02-04T22:03:12;113.28;;;76.28;;
37085;SDS011;23001;45.952;12.676;2024-02-04T22:05:38;114.53;;;76.38;;
37085;SDS011;23001;45.952;12.676;2024-02-04T22:08:04;106.65;;;71.97;;
37085;SDS011;23001;45.952;12.676;2024-02-04T22:10:30;106.70;;;72.55;;
37085;SDS011;23001;45.952;12.676;2024-02-04T22:12:56;106.35;;;72.28;;
37085;SDS011;23001;45.952;12.676;2024-02-04T22:15:22;104.82;;;69.70;;
37085;SDS011;23001;45.952;12.676;2024-02-04T22:17:48;103.82;;;72.35;;
37085;SDS011;23001;45.952;12.676;2024-02-04T22:20:14;101.20;;;70.13;;
37085;SDS011;23001;45.952;12.676;2024-02-04T22:22:51;103.63;;;70.63;;
37085;SDS011;23001;45.952;12.676;2024-02-04T22:25:23;98.57;;;66.78;;
37085;SDS011;23001;45.952;12.676;2024-02-04T22:30:43;102.35;;;67.50;;
37085;SDS011;23001;45.952;12.676;2024-02-04T22:33:15;102.00;;;67.78;;
37085;SDS011;23001;45.952;12.676;2024-02-04T22:35:44;93.68;;;64.60;;
37085;SDS011;23001;45.952;12.676;2024-02-04T22:38:10;101.63;;;66.00;;
37085;SDS011;23001;45.952;12.676;2024-02-04T22:40:36;101.18;;;64.45;;
37085;SDS011;23001;45.952;12.676;2024-02-04T22:43:02;97.47;;;65.28;;
37085;SDS011;23001;45.952;12.676;2024-02-04T22:45:27;98.70;;;65.68;;
37085;SDS011;23001;45.952;12.676;2024-02-04T22:47:53;101.55;;;67.55;;
37085;SDS011;23001;45.952;12.676;2024-02-04T22:50:37;101.55;;;68.40;;
37085;SDS011;23001;45.952;12.676;2024-02-04T22:53:03;100.82;;;70.15;;
37085;SDS011;23001;45.952;12.676;2024-02-04T22:55:30;99.30;;;67.47;;
37085;SDS011;23001;45.952;12.676;2024-02-04T22:57:56;97.25;;;69.35;;
37085;SDS011;23001;45.952;12.676;2024-02-04T23:00:21;97.00;;;69.20;;
37085;SDS011;23001;45.952;12.676;2024-02-04T23:03:02;99.95;;;70.43;;
37085;SDS011;23001;45.952;12.676;2024-02-04T23:05:30;103.85;;;69.72;;
37085;SDS011;23001;45.952;12.676;2024-02-04T23:07:56;106.38;;;69.97;;
37085;SDS011;23001;45.952;12.676;2024-02-04T23:10:22;102.05;;;70.10;;
37085;SDS011;23001;45.952;12.676;2024-02-04T23:12:49;104.47;;;70.60;;
37085;SDS011;23001;45.952;12.676;2024-02-04T23:15:15;103.55;;;70.57;;
37085;SDS011;23001;45.952;12.676;2024-02-04T23:17:41;103.15;;;71.57;;
37085;SDS011;23001;45.952;12.676;2024-02-04T23:20:07;103.97;;;70.00;;
37085;SDS011;23001;45.952;12.676;2024-02-04T23:22:36;105.95;;;70.20;;
37085;SDS011;23001;45.952;12.676;2024-02-04T23:25:03;102.28;;;68.57;;
37085;SDS011;23001;45.952;12.676;2024-02-04T23:27:29;101.97;;;68.70;;
37085;SDS011;23001;45.952;12.676;2024-02-04T23:29:56;96.22;;;66.85;;
37085;SDS011;23001;45.952;12.676;2024-02-04T23:32:22;103.30;;;68.63;;
37085;SDS011;23001;45.952;12.676;2024-02-04T23:34:48;96.35;;;67.78;;
37085;SDS011;23001;45.952;12.676;2024-02-04T23:37:14;99.50;;;69.32;;
37085;SDS011;23001;45.952;12.676;2024-02-04T23:39:40;95.25;;;65.95;;
37085;SDS011;23001;45.952;12.676;2024-02-04T23:42:06;100.90;;;68.30;;
37085;SDS011;23001;45.952;12.676;2024-02-04T23:44:32;106.40;;;69.55;;
37085;SDS011;23001;45.952;12.676;2024-02-04T23:46:58;94.90;;;66.90;;
37085;SDS011;23001;45.952;12.676;2024-02-04T23:49:24;98.95;;;67.95;;
37085;SDS011;23001;45.952;12.676;2024-02-04T23:51:50;96.50;;;66.70;;
37085;SDS011;23001;45.952;12.676;2024-02-04T23:54:16;99.70;;;66.53;;
37085;SDS011;23001;45.952;12.676;2024-02-04T23:56:45;93.82;;;66.65;;
